Startpagina
METAR-TAF:

METAR-TAF

Vliegvelden :

Pembrey, Wales

breedte: 51-43N, lengte: 004-22W, hoogte: 3 m

Actueel weer

Dit bericht is 1 uur en het 11 minuten geleden gemaakt, om 08:50 UTC
Wind 9 kt uit het zuiden
Temperatuur 17°C
Vochtigheid 59%
Druk 1029 hPa
Zicht 10 km of meer

METAR: EGOP 120850Z AUTO 17009KT 9999 // NCD 17/09 Q1029

Tijdstip: 11:01 (10:01 UTC)


TAF: ontbreekt

Waarnemingen en weersverwachtingen van meer dan 4000 vliegvelden (METAR en TAF).

De beschikbare stations zijn de gele en rode punten op de kaart.

Ga met uw muis naar het station om de naam te zien.

Klik dan om waarnemingen en weersverwachtingen te zien.

kaart wijzigen: klik op de groene knoppen met een zwart kruis om in te zoomen, op de groene knop met een streepje om uit te zoomen of op de groene pijlen voor aangrenzende kaarten.


METAR-TAF: